Terminal Aerodrome Forecast
Issued by NWS Charleston, WV

Current Version | Previous Version | Text Only | Print | Product List | Glossary Off
Versions: 1 2 3 4 5 6 7 8 9 10 11 12 13 14 15 16 17 18 19 20 21

000
FTUS41 KRLX 282323
TAFPKB
TAF
KPKB 282323Z 2900/2924 VRB03KT 6SM BR VCTS BKN035CB
     FM290200 00000KT 6SM BR BKN035
     FM290600 00000KT 4SM BR BKN020
     FM291000 VRB03KT 4SM BR OVC010
     FM291500 28005KT 6SM HZ BKN025
     FM291800 31006KT P6SM BKN045
     FM292200 33007KT P6SM SCT050=

USA.gov is the U.S. government's official web portal to all federal, state and local government web resources and services.